Airfield :
LOGIN :

Register | Disclaimer

   EN    FR    IT 

 










Legend :    VFR   Marginal VFR   IFR   Intensive IFR   Very Intensive IFR
Visi :
Ceiling :
>= 8 km
>= 3000ft
5 to 8 km
1000 to 3000 ft
1500m to 5 km
500 to 1000 ft
800 to 1500m
200 to 500 ft
< 800m
< 200 ft
Symbols :   Thunderstorms  Fog  Heavy snow  Heavy precipitations  Wind > 20 kt
SIGMETs :     Misc.  Thunderstorms  Icing  Turbulence  Mountain Waves  Volcanic Ashes






- Airport Elevation : 779 ft
- IATA code : CMF


LFLB - Chambery / Aix-Les-Bains

CURRENT METAR :
  • 151430Z AUTO 34006KT CAVOK 29/21 Q1009 NOSIG

EXPIRED METARs :
  • 151400Z AUTO 36006KT CAVOK 29/20 Q1010 NOSIG
  • 151330Z AUTO 34006KT CAVOK 29/20 Q1010 NOSIG
  • 151300Z AUTO 35007KT CAVOK 28/19 Q1011 NOSIG
  • 151230Z AUTO 35007KT CAVOK 28/19 Q1011 NOSIG
  • 151200Z AUTO 35006KT CAVOK 27/18 Q1011 NOSIG
  • 151130Z AUTO 36006KT CAVOK 27/19 Q1011 NOSIG
  • 151100Z AUTO 34005KT 310V020 CAVOK 27/18 Q1012 NOSIG
  • 151030Z AUTO 34004KT 300V020 CAVOK 27/18 Q1012 NOSIG
  • 151000Z AUTO 35004KT 310V030 CAVOK 26/18 Q1012 NOSIG

TAF TAF LFLB
Valid from the 15 at 15:00 until the 16 at 15:00 UTC


151400Z 1515/1615 VRB04KT CAVOK
PROB40
TEMPO 1518/1520 27020G40KT 3000 TSRA BKN060CB
PROB40
TEMPO 1521/1603 5000 SHRA FEW030CB BKN035TCU



MET'MAP, your aeronautical weather chart ! - Copyright ORBIFLY December 2007 - Disclaimer

ORBIFLY MET'MAP TEAM :

Programming & Development : Alexandra Zaïnal
Original concept : Baudouin d'Aumeries
Technical & hardware support : Manuel Goepfert
Assistance : Marc-Olivier Méhu




SOURCES & CREDITS :

   NOAA